sensor_id;sensor_type;location;lat;lon;timestamp;temperature;humidity
13115;DHT22;6623;52.120;8.660;2022-12-07T00:00:55;5.80;88.10
13115;DHT22;6623;52.120;8.660;2022-12-07T00:03:20;5.80;88.10
13115;DHT22;6623;52.120;8.660;2022-12-07T00:05:46;5.80;88.20
13115;DHT22;6623;52.120;8.660;2022-12-07T00:08:12;5.80;88.20
13115;DHT22;6623;52.120;8.660;2022-12-07T00:10:37;5.80;88.20
13115;DHT22;6623;52.120;8.660;2022-12-07T00:13:03;5.80;88.20
13115;DHT22;6623;52.120;8.660;2022-12-07T00:15:28;5.70;88.30
13115;DHT22;6623;52.120;8.660;2022-12-07T00:17:54;5.70;88.30
13115;DHT22;6623;52.120;8.660;2022-12-07T00:20:19;5.80;88.40
13115;DHT22;6623;52.120;8.660;2022-12-07T00:22:45;5.70;88.50
13115;DHT22;6623;52.120;8.660;2022-12-07T00:25:10;5.70;88.50
13115;DHT22;6623;52.120;8.660;2022-12-07T00:27:36;5.70;88.60
13115;DHT22;6623;52.120;8.660;2022-12-07T00:30:02;5.80;88.70
13115;DHT22;6623;52.120;8.660;2022-12-07T00:32:27;5.70;88.70
13115;DHT22;6623;52.120;8.660;2022-12-07T00:34:53;5.80;88.80
13115;DHT22;6623;52.120;8.660;2022-12-07T00:37:18;5.70;88.80
13115;DHT22;6623;52.120;8.660;2022-12-07T00:39:46;5.70;88.80
13115;DHT22;6623;52.120;8.660;2022-12-07T00:42:11;5.70;88.90
13115;DHT22;6623;52.120;8.660;2022-12-07T00:44:37;5.80;88.90
13115;DHT22;6623;52.120;8.660;2022-12-07T00:47:02;5.80;88.90
13115;DHT22;6623;52.120;8.660;2022-12-07T00:49:28;5.80;89.50
13115;DHT22;6623;52.120;8.660;2022-12-07T00:51:54;6.30;89.10
13115;DHT22;6623;52.120;8.660;2022-12-07T00:54:19;5.80;89.00
13115;DHT22;6623;52.120;8.660;2022-12-07T00:56:45;5.80;89.00
13115;DHT22;6623;52.120;8.660;2022-12-07T00:59:13;5.80;89.00
13115;DHT22;6623;52.120;8.660;2022-12-07T01:01:42;5.60;89.00
13115;DHT22;6623;52.120;8.660;2022-12-07T01:04:08;5.80;89.10
13115;DHT22;6623;52.120;8.660;2022-12-07T01:06:34;5.80;89.00
13115;DHT22;6623;52.120;8.660;2022-12-07T01:09:00;5.80;89.10
13115;DHT22;6623;52.120;8.660;2022-12-07T01:11:27;6.00;89.40
13115;DHT22;6623;52.120;8.660;2022-12-07T01:13:54;5.70;89.00
13115;DHT22;6623;52.120;8.660;2022-12-07T01:16:22;5.80;89.00
13115;DHT22;6623;52.120;8.660;2022-12-07T01:18:49;5.80;88.90
13115;DHT22;6623;52.120;8.660;2022-12-07T01:21:21;5.80;88.90
13115;DHT22;6623;52.120;8.660;2022-12-07T01:23:47;5.70;88.80
13115;DHT22;6623;52.120;8.660;2022-12-07T01:26:15;5.70;88.70
13115;DHT22;6623;52.120;8.660;2022-12-07T01:28:41;5.70;88.60
13115;DHT22;6623;52.120;8.660;2022-12-07T01:31:09;5.70;88.40
13115;DHT22;6623;52.120;8.660;2022-12-07T01:33:41;5.60;88.20
13115;DHT22;6623;52.120;8.660;2022-12-07T01:36:20;5.60;88.00
13115;DHT22;6623;52.120;8.660;2022-12-07T01:38:47;5.50;87.90
13115;DHT22;6623;52.120;8.660;2022-12-07T01:41:13;5.80;88.20
13115;DHT22;6623;52.120;8.660;2022-12-07T01:44:31;5.50;88.20
13115;DHT22;6623;52.120;8.660;2022-12-07T01:46:55;5.50;88.30
13115;DHT22;6623;52.120;8.660;2022-12-07T01:52:28;5.50;88.20
13115;DHT22;6623;52.120;8.660;2022-12-07T01:54:59;5.50;88.00
13115;DHT22;6623;52.120;8.660;2022-12-07T01:57:26;5.40;87.90
13115;DHT22;6623;52.120;8.660;2022-12-07T01:59:53;5.40;87.80
13115;DHT22;6623;52.120;8.660;2022-12-07T02:02:35;5.40;87.70
13115;DHT22;6623;52.120;8.660;2022-12-07T02:05:04;5.30;87.60
13115;DHT22;6623;52.120;8.660;2022-12-07T02:07:31;5.30;87.50
13115;DHT22;6623;52.120;8.660;2022-12-07T02:10:15;5.30;87.50
13115;DHT22;6623;52.120;8.660;2022-12-07T02:12:41;5.30;87.60
13115;DHT22;6623;52.120;8.660;2022-12-07T02:15:07;5.20;87.80
13115;DHT22;6623;52.120;8.660;2022-12-07T02:18:11;5.20;87.80
13115;DHT22;6623;52.120;8.660;2022-12-07T02:26:32;5.20;87.40
13115;DHT22;6623;52.120;8.660;2022-12-07T02:29:10;5.10;87.40
13115;DHT22;6623;52.120;8.660;2022-12-07T02:31:39;5.10;87.60
13115;DHT22;6623;52.120;8.660;2022-12-07T02:34:14;5.10;87.70
13115;DHT22;6623;52.120;8.660;2022-12-07T02:36:46;5.10;87.90
13115;DHT22;6623;52.120;8.660;2022-12-07T02:41:59;5.10;88.20
13115;DHT22;6623;52.120;8.660;2022-12-07T02:44:28;5.10;88.20
13115;DHT22;6623;52.120;8.660;2022-12-07T02:46:58;5.10;88.20
13115;DHT22;6623;52.120;8.660;2022-12-07T02:49:27;5.10;88.20
13115;DHT22;6623;52.120;8.660;2022-12-07T02:51:53;5.10;88.20
13115;DHT22;6623;52.120;8.660;2022-12-07T02:54:20;5.10;88.30
13115;DHT22;6623;52.120;8.660;2022-12-07T03:15:47;5.00;87.90
13115;DHT22;6623;52.120;8.660;2022-12-07T03:18:18;4.90;87.80
13115;DHT22;6623;52.120;8.660;2022-12-07T03:20:45;4.90;87.90
13115;DHT22;6623;52.120;8.660;2022-12-07T03:23:12;4.90;87.90
13115;DHT22;6623;52.120;8.660;2022-12-07T03:25:46;4.90;87.90
13115;DHT22;6623;52.120;8.660;2022-12-07T03:28:15;4.70;87.90
13115;DHT22;6623;52.120;8.660;2022-12-07T03:30:52;4.80;87.80
13115;DHT22;6623;52.120;8.660;2022-12-07T03:33:33;4.80;87.80
13115;DHT22;6623;52.120;8.660;2022-12-07T03:36:07;4.80;87.90
13115;DHT22;6623;52.120;8.660;2022-12-07T03:38:40;4.70;87.80
13115;DHT22;6623;52.120;8.660;2022-12-07T03:41:18;4.70;87.70
13115;DHT22;6623;52.120;8.660;2022-12-07T03:43:48;4.70;87.70
13115;DHT22;6623;52.120;8.660;2022-12-07T03:49:02;4.70;87.70
13115;DHT22;6623;52.120;8.660;2022-12-07T03:51:56;4.70;87.90
13115;DHT22;6623;52.120;8.660;2022-12-07T03:54:33;4.70;88.20
13115;DHT22;6623;52.120;8.660;2022-12-07T03:57:02;4.70;88.30
13115;DHT22;6623;52.120;8.660;2022-12-07T03:59:29;4.70;88.50
13115;DHT22;6623;52.120;8.660;2022-12-07T04:01:57;4.70;88.30
13115;DHT22;6623;52.120;8.660;2022-12-07T04:04:26;4.70;88.10
13115;DHT22;6623;52.120;8.660;2022-12-07T04:06:53;4.70;88.00
13115;DHT22;6623;52.120;8.660;2022-12-07T04:09:18;4.70;88.00
13115;DHT22;6623;52.120;8.660;2022-12-07T04:11:44;4.70;88.00
13115;DHT22;6623;52.120;8.660;2022-12-07T04:14:10;4.70;88.10
13115;DHT22;6623;52.120;8.660;2022-12-07T04:16:50;4.70;88.20
13115;DHT22;6623;52.120;8.660;2022-12-07T04:19:17;4.70;88.30
13115;DHT22;6623;52.120;8.660;2022-12-07T04:21:43;5.30;88.70
13115;DHT22;6623;52.120;8.660;2022-12-07T04:24:09;4.70;88.40
13115;DHT22;6623;52.120;8.660;2022-12-07T04:26:36;4.70;88.60
13115;DHT22;6623;52.120;8.660;2022-12-07T04:29:02;4.70;88.60
13115;DHT22;6623;52.120;8.660;2022-12-07T04:31:28;4.70;88.70
13115;DHT22;6623;52.120;8.660;2022-12-07T04:33:53;4.70;88.70
13115;DHT22;6623;52.120;8.660;2022-12-07T04:36:19;4.80;88.80
13115;DHT22;6623;52.120;8.660;2022-12-07T04:38:46;4.80;88.90
13115;DHT22;6623;52.120;8.660;2022-12-07T04:41:11;4.80;88.90
13115;DHT22;6623;52.120;8.660;2022-12-07T04:43:37;4.80;88.80
13115;DHT22;6623;52.120;8.660;2022-12-07T04:46:03;4.80;88.80
13115;DHT22;6623;52.120;8.660;2022-12-07T04:48:29;4.80;88.60
13115;DHT22;6623;52.120;8.660;2022-12-07T04:50:57;4.80;88.60
13115;DHT22;6623;52.120;8.660;2022-12-07T04:53:23;4.80;88.70
13115;DHT22;6623;52.120;8.660;2022-12-07T04:55:49;4.80;88.80
13115;DHT22;6623;52.120;8.660;2022-12-07T04:58:14;4.80;88.80
13115;DHT22;6623;52.120;8.660;2022-12-07T05:00:40;4.80;88.80
13115;DHT22;6623;52.120;8.660;2022-12-07T05:03:06;4.80;88.80
13115;DHT22;6623;52.120;8.660;2022-12-07T05:05:31;4.80;88.80
13115;DHT22;6623;52.120;8.660;2022-12-07T05:07:57;4.80;88.80
13115;DHT22;6623;52.120;8.660;2022-12-07T05:10:22;4.80;88.80
13115;DHT22;6623;52.120;8.660;2022-12-07T05:12:48;4.90;88.80
13115;DHT22;6623;52.120;8.660;2022-12-07T05:15:15;4.90;88.80
13115;DHT22;6623;52.120;8.660;2022-12-07T05:17:41;5.40;89.10
13115;DHT22;6623;52.120;8.660;2022-12-07T05:20:07;4.90;88.80
13115;DHT22;6623;52.120;8.660;2022-12-07T05:22:36;4.90;88.70
13115;DHT22;6623;52.120;8.660;2022-12-07T05:25:05;4.90;88.70
13115;DHT22;6623;52.120;8.660;2022-12-07T05:27:31;4.90;88.60
13115;DHT22;6623;52.120;8.660;2022-12-07T05:29:56;4.80;88.50
13115;DHT22;6623;52.120;8.660;2022-12-07T05:32:22;4.90;88.50
13115;DHT22;6623;52.120;8.660;2022-12-07T05:34:47;4.90;88.50
13115;DHT22;6623;52.120;8.660;2022-12-07T05:37:13;4.90;88.50
13115;DHT22;6623;52.120;8.660;2022-12-07T05:39:38;4.90;88.50
13115;DHT22;6623;52.120;8.660;2022-12-07T05:42:06;4.80;88.60
13115;DHT22;6623;52.120;8.660;2022-12-07T05:44:46;4.90;88.50
13115;DHT22;6623;52.120;8.660;2022-12-07T05:47:13;4.90;88.50
13115;DHT22;6623;52.120;8.660;2022-12-07T05:49:39;4.90;88.40
13115;DHT22;6623;52.120;8.660;2022-12-07T05:52:05;4.90;88.40
13115;DHT22;6623;52.120;8.660;2022-12-07T05:54:31;4.90;88.20
13115;DHT22;6623;52.120;8.660;2022-12-07T05:56:57;4.90;88.00
13115;DHT22;6623;52.120;8.660;2022-12-07T05:59:23;4.80;87.70
13115;DHT22;6623;52.120;8.660;2022-12-07T06:04:15;4.80;87.80
13115;DHT22;6623;52.120;8.660;2022-12-07T06:06:41;4.80;87.90
13115;DHT22;6623;52.120;8.660;2022-12-07T06:09:07;4.80;87.90
13115;DHT22;6623;52.120;8.660;2022-12-07T06:11:33;4.80;87.60
13115;DHT22;6623;52.120;8.660;2022-12-07T06:14:19;4.70;87.30
13115;DHT22;6623;52.120;8.660;2022-12-07T06:16:45;4.70;87.10
13115;DHT22;6623;52.120;8.660;2022-12-07T06:19:11;4.60;86.90
13115;DHT22;6623;52.120;8.660;2022-12-07T06:21:36;4.60;86.80
13115;DHT22;6623;52.120;8.660;2022-12-07T06:24:02;4.60;86.90
13115;DHT22;6623;52.120;8.660;2022-12-07T06:26:28;4.50;86.90
13115;DHT22;6623;52.120;8.660;2022-12-07T06:28:53;4.50;87.10
13115;DHT22;6623;52.120;8.660;2022-12-07T06:31:19;4.50;87.40
13115;DHT22;6623;52.120;8.660;2022-12-07T06:33:45;4.50;87.60
13115;DHT22;6623;52.120;8.660;2022-12-07T06:36:10;4.60;87.80
13115;DHT22;6623;52.120;8.660;2022-12-07T06:38:37;4.60;87.90
13115;DHT22;6623;52.120;8.660;2022-12-07T06:41:02;4.60;88.00
13115;DHT22;6623;52.120;8.660;2022-12-07T06:43:28;4.60;87.80
13115;DHT22;6623;52.120;8.660;2022-12-07T06:45:53;4.60;87.70
13115;DHT22;6623;52.120;8.660;2022-12-07T06:48:22;4.60;87.60
13115;DHT22;6623;52.120;8.660;2022-12-07T06:50:54;4.60;87.70
13115;DHT22;6623;52.120;8.660;2022-12-07T06:53:20;4.60;87.70
13115;DHT22;6623;52.120;8.660;2022-12-07T06:55:45;4.60;87.70
13115;DHT22;6623;52.120;8.660;2022-12-07T06:58:11;4.60;87.70
13115;DHT22;6623;52.120;8.660;2022-12-07T07:00:36;4.60;87.50
13115;DHT22;6623;52.120;8.660;2022-12-07T07:03:02;4.60;87.10
13115;DHT22;6623;52.120;8.660;2022-12-07T07:05:27;4.50;86.80
13115;DHT22;6623;52.120;8.660;2022-12-07T07:07:53;4.50;86.70
13115;DHT22;6623;52.120;8.660;2022-12-07T07:10:19;4.50;86.60
13115;DHT22;6623;52.120;8.660;2022-12-07T07:12:47;4.40;86.50
13115;DHT22;6623;52.120;8.660;2022-12-07T07:15:13;4.40;86.40
13115;DHT22;6623;52.120;8.660;2022-12-07T07:17:38;4.30;86.30
13115;DHT22;6623;52.120;8.660;2022-12-07T07:20:05;4.30;86.30
13115;DHT22;6623;52.120;8.660;2022-12-07T07:22:31;4.30;86.40
13115;DHT22;6623;52.120;8.660;2022-12-07T07:24:56;4.30;86.50
13115;DHT22;6623;52.120;8.660;2022-12-07T07:27:22;4.30;86.60
13115;DHT22;6623;52.120;8.660;2022-12-07T07:29:47;4.30;86.70
13115;DHT22;6623;52.120;8.660;2022-12-07T07:32:13;4.20;86.60
13115;DHT22;6623;52.120;8.660;2022-12-07T07:34:39;4.20;86.50
13115;DHT22;6623;52.120;8.660;2022-12-07T07:37:05;4.20;86.40
13115;DHT22;6623;52.120;8.660;2022-12-07T07:39:30;4.20;86.50
13115;DHT22;6623;52.120;8.660;2022-12-07T07:41:56;4.20;86.60
13115;DHT22;6623;52.120;8.660;2022-12-07T07:44:21;4.20;87.10
13115;DHT22;6623;52.120;8.660;2022-12-07T07:46:47;4.30;87.50
13115;DHT22;6623;52.120;8.660;2022-12-07T07:49:13;4.30;87.60
13115;DHT22;6623;52.120;8.660;2022-12-07T07:51:38;4.40;87.70
13115;DHT22;6623;52.120;8.660;2022-12-07T07:54:04;4.40;87.70
13115;DHT22;6623;52.120;8.660;2022-12-07T07:56:32;4.40;87.80
13115;DHT22;6623;52.120;8.660;2022-12-07T07:58:58;4.40;87.90
13115;DHT22;6623;52.120;8.660;2022-12-07T08:01:23;4.40;87.90
13115;DHT22;6623;52.120;8.660;2022-12-07T08:03:49;4.50;88.70
13115;DHT22;6623;52.120;8.660;2022-12-07T08:06:15;4.50;88.10
13115;DHT22;6623;52.120;8.660;2022-12-07T08:08:40;4.50;88.00
13115;DHT22;6623;52.120;8.660;2022-12-07T08:11:08;4.50;88.00
13115;DHT22;6623;52.120;8.660;2022-12-07T08:13:34;4.50;87.90
13115;DHT22;6623;52.120;8.660;2022-12-07T08:16:04;4.50;87.80
13115;DHT22;6623;52.120;8.660;2022-12-07T08:18:30;4.60;87.90
13115;DHT22;6623;52.120;8.660;2022-12-07T08:20:59;4.60;88.00
13115;DHT22;6623;52.120;8.660;2022-12-07T08:23:27;4.60;88.10
13115;DHT22;6623;52.120;8.660;2022-12-07T08:25:53;4.60;88.70
13115;DHT22;6623;52.120;8.660;2022-12-07T08:28:19;4.60;88.10
13115;DHT22;6623;52.120;8.660;2022-12-07T08:30:44;4.70;88.10
13115;DHT22;6623;52.120;8.660;2022-12-07T08:33:10;4.70;88.20
13115;DHT22;6623;52.120;8.660;2022-12-07T08:35:36;4.70;88.20
13115;DHT22;6623;52.120;8.660;2022-12-07T08:38:02;4.70;88.20
13115;DHT22;6623;52.120;8.660;2022-12-07T08:40:28;4.80;88.20
13115;DHT22;6623;52.120;8.660;2022-12-07T08:42:54;4.70;87.90
13115;DHT22;6623;52.120;8.660;2022-12-07T08:45:21;4.80;87.90
13115;DHT22;6623;52.120;8.660;2022-12-07T08:48:13;4.80;88.00
13115;DHT22;6623;52.120;8.660;2022-12-07T08:50:39;4.80;88.20
13115;DHT22;6623;52.120;8.660;2022-12-07T08:53:08;4.80;88.40
13115;DHT22;6623;52.120;8.660;2022-12-07T08:55:34;4.90;88.60
13115;DHT22;6623;52.120;8.660;2022-12-07T08:58:00;5.00;88.50
13115;DHT22;6623;52.120;8.660;2022-12-07T09:00:27;5.00;88.60
13115;DHT22;6623;52.120;8.660;2022-12-07T09:02:53;5.00;89.10
13115;DHT22;6623;52.120;8.660;2022-12-07T09:05:20;5.10;88.50
13115;DHT22;6623;52.120;8.660;2022-12-07T09:07:51;5.10;88.40
13115;DHT22;6623;52.120;8.660;2022-12-07T09:10:18;5.20;88.40
13115;DHT22;6623;52.120;8.660;2022-12-07T09:12:44;5.10;88.30
13115;DHT22;6623;52.120;8.660;2022-12-07T09:15:09;5.10;88.20
13115;DHT22;6623;52.120;8.660;2022-12-07T09:17:35;5.20;88.10
13115;DHT22;6623;52.120;8.660;2022-12-07T09:20:02;5.10;88.10
13115;DHT22;6623;52.120;8.660;2022-12-07T09:22:31;5.20;88.10
13115;DHT22;6623;52.120;8.660;2022-12-07T09:25:00;5.20;88.00
13115;DHT22;6623;52.120;8.660;2022-12-07T09:27:26;5.70;88.00
13115;DHT22;6623;52.120;8.660;2022-12-07T09:29:52;5.20;87.60
13115;DHT22;6623;52.120;8.660;2022-12-07T09:32:17;5.20;87.60
13115;DHT22;6623;52.120;8.660;2022-12-07T09:34:43;5.10;88.10
13115;DHT22;6623;52.120;8.660;2022-12-07T09:37:09;5.20;87.50
13115;DHT22;6623;52.120;8.660;2022-12-07T09:39:37;5.10;87.40
13115;DHT22;6623;52.120;8.660;2022-12-07T09:42:04;5.10;87.20
13115;DHT22;6623;52.120;8.660;2022-12-07T09:44:30;5.30;87.10
13115;DHT22;6623;52.120;8.660;2022-12-07T09:46:55;5.30;87.10
13115;DHT22;6623;52.120;8.660;2022-12-07T09:49:24;5.00;86.90
13115;DHT22;6623;52.120;8.660;2022-12-07T09:54:44;5.00;87.50
13115;DHT22;6623;52.120;8.660;2022-12-07T09:57:11;5.10;87.90
13115;DHT22;6623;52.120;8.660;2022-12-07T09:59:40;5.50;88.10
13115;DHT22;6623;52.120;8.660;2022-12-07T10:04:50;5.20;87.60
13115;DHT22;6623;52.120;8.660;2022-12-07T10:07:16;5.20;87.60
13115;DHT22;6623;52.120;8.660;2022-12-07T10:09:41;5.20;87.60
13115;DHT22;6623;52.120;8.660;2022-12-07T10:12:12;5.20;87.70
13115;DHT22;6623;52.120;8.660;2022-12-07T10:14:52;5.30;87.60
13115;DHT22;6623;52.120;8.660;2022-12-07T10:17:31;5.30;87.70
13115;DHT22;6623;52.120;8.660;2022-12-07T10:20:18;5.30;87.70
13115;DHT22;6623;52.120;8.660;2022-12-07T10:23:03;5.40;87.80
13115;DHT22;6623;52.120;8.660;2022-12-07T10:25:35;5.40;87.90
13115;DHT22;6623;52.120;8.660;2022-12-07T10:35:54;5.50;87.80
13115;DHT22;6623;52.120;8.660;2022-12-07T10:38:20;6.00;88.10
13115;DHT22;6623;52.120;8.660;2022-12-07T10:40:46;5.60;87.80
13115;DHT22;6623;52.120;8.660;2022-12-07T10:46:13;5.60;87.60
13115;DHT22;6623;52.120;8.660;2022-12-07T10:48:46;5.60;87.60
13115;DHT22;6623;52.120;8.660;2022-12-07T10:51:43;5.60;87.40
13115;DHT22;6623;52.120;8.660;2022-12-07T10:54:36;5.60;87.00
13115;DHT22;6623;52.120;8.660;2022-12-07T10:57:20;5.60;86.70
13115;DHT22;6623;52.120;8.660;2022-12-07T11:00:00;5.50;86.50
13115;DHT22;6623;52.120;8.660;2022-12-07T11:05:32;5.40;86.10
13115;DHT22;6623;52.120;8.660;2022-12-07T11:10:56;5.40;86.30
13115;DHT22;6623;52.120;8.660;2022-12-07T11:21:40;5.40;86.60
13115;DHT22;6623;52.120;8.660;2022-12-07T11:24:15;5.50;86.90
13115;DHT22;6623;52.120;8.660;2022-12-07T11:27:04;5.50;87.10
13115;DHT22;6623;52.120;8.660;2022-12-07T11:29:49;5.60;87.20
13115;DHT22;6623;52.120;8.660;2022-12-07T11:35:04;5.70;87.20
13115;DHT22;6623;52.120;8.660;2022-12-07T11:37:34;5.80;87.10
13115;DHT22;6623;52.120;8.660;2022-12-07T11:42:46;5.80;86.90
13115;DHT22;6623;52.120;8.660;2022-12-07T11:45:20;5.80;86.80
13115;DHT22;6623;52.120;8.660;2022-12-07T11:48:06;5.90;86.70
13115;DHT22;6623;52.120;8.660;2022-12-07T11:53:31;5.90;85.90
13115;DHT22;6623;52.120;8.660;2022-12-07T11:56:15;5.80;85.60
13115;DHT22;6623;52.120;8.660;2022-12-07T12:06:40;5.90;86.30
13115;DHT22;6623;52.120;8.660;2022-12-07T12:14:46;6.10;86.30
13115;DHT22;6623;52.120;8.660;2022-12-07T12:20:24;6.20;86.50
13115;DHT22;6623;52.120;8.660;2022-12-07T12:23:04;6.30;86.60
13115;DHT22;6623;52.120;8.660;2022-12-07T12:26:03;6.40;86.20
13115;DHT22;6623;52.120;8.660;2022-12-07T12:28:48;6.40;85.80
13115;DHT22;6623;52.120;8.660;2022-12-07T12:33:51;6.40;85.40
13115;DHT22;6623;52.120;8.660;2022-12-07T12:36:28;6.30;85.00
13115;DHT22;6623;52.120;8.660;2022-12-07T12:39:10;6.40;85.20
13115;DHT22;6623;52.120;8.660;2022-12-07T12:46:50;6.40;84.30
13115;DHT22;6623;52.120;8.660;2022-12-07T12:51:56;6.40;84.00
13115;DHT22;6623;52.120;8.660;2022-12-07T12:54:34;6.30;83.60
13115;DHT22;6623;52.120;8.660;2022-12-07T12:59:57;6.30;83.90
13115;DHT22;6623;52.120;8.660;2022-12-07T13:10:40;6.40;84.00
13115;DHT22;6623;52.120;8.660;2022-12-07T13:15:54;6.40;83.70
13115;DHT22;6623;52.120;8.660;2022-12-07T13:28:51;6.40;84.30
13115;DHT22;6623;52.120;8.660;2022-12-07T13:31:35;6.50;83.70
13115;DHT22;6623;52.120;8.660;2022-12-07T13:34:05;6.50;83.60
13115;DHT22;6623;52.120;8.660;2022-12-07T13:36:38;6.50;83.30
13115;DHT22;6623;52.120;8.660;2022-12-07T13:39:32;6.50;83.90
13115;DHT22;6623;52.120;8.660;2022-12-07T13:41:59;6.60;83.20
13115;DHT22;6623;52.120;8.660;2022-12-07T13:44:27;6.60;83.30
13115;DHT22;6623;52.120;8.660;2022-12-07T13:47:06;6.60;83.30
13115;DHT22;6623;52.120;8.660;2022-12-07T13:49:49;6.60;83.30
13115;DHT22;6623;52.120;8.660;2022-12-07T13:52:19;6.60;83.10
13115;DHT22;6623;52.120;8.660;2022-12-07T13:54:56;7.10;83.20
13115;DHT22;6623;52.120;8.660;2022-12-07T13:57:24;6.60;82.90
13115;DHT22;6623;52.120;8.660;2022-12-07T13:59:50;6.60;82.60
13115;DHT22;6623;52.120;8.660;2022-12-07T14:02:28;6.60;82.40
13115;DHT22;6623;52.120;8.660;2022-12-07T14:05:14;6.50;82.30
13115;DHT22;6623;52.120;8.660;2022-12-07T14:10:55;6.50;82.30
13115;DHT22;6623;52.120;8.660;2022-12-07T14:13:47;6.50;82.30
13115;DHT22;6623;52.120;8.660;2022-12-07T14:16:32;6.50;81.90
13115;DHT22;6623;52.120;8.660;2022-12-07T14:19:04;6.40;81.60
13115;DHT22;6623;52.120;8.660;2022-12-07T14:21:34;6.40;81.50
13115;DHT22;6623;52.120;8.660;2022-12-07T14:24:29;6.30;81.30
13115;DHT22;6623;52.120;8.660;2022-12-07T14:26:58;6.20;81.30
13115;DHT22;6623;52.120;8.660;2022-12-07T14:31:57;6.20;81.30
13115;DHT22;6623;52.120;8.660;2022-12-07T14:34:24;6.20;81.40
13115;DHT22;6623;52.120;8.660;2022-12-07T14:36:50;6.10;81.40
13115;DHT22;6623;52.120;8.660;2022-12-07T14:39:15;6.10;81.40
13115;DHT22;6623;52.120;8.660;2022-12-07T14:41:41;6.10;81.60
13115;DHT22;6623;52.120;8.660;2022-12-07T14:44:20;6.10;81.70
13115;DHT22;6623;52.120;8.660;2022-12-07T14:46:47;6.10;81.80
13115;DHT22;6623;52.120;8.660;2022-12-07T14:49:13;6.10;81.90
13115;DHT22;6623;52.120;8.660;2022-12-07T14:51:39;6.10;81.90
13115;DHT22;6623;52.120;8.660;2022-12-07T14:54:07;6.10;81.60
13115;DHT22;6623;52.120;8.660;2022-12-07T14:56:37;6.10;81.40
13115;DHT22;6623;52.120;8.660;2022-12-07T14:59:02;6.10;81.30
13115;DHT22;6623;52.120;8.660;2022-12-07T15:01:28;6.00;81.30
13115;DHT22;6623;52.120;8.660;2022-12-07T15:03:53;6.00;81.50
13115;DHT22;6623;52.120;8.660;2022-12-07T15:06:19;6.00;81.50
13115;DHT22;6623;52.120;8.660;2022-12-07T15:08:45;6.00;81.60
13115;DHT22;6623;52.120;8.660;2022-12-07T15:11:15;6.00;81.60
13115;DHT22;6623;52.120;8.660;2022-12-07T15:13:41;6.00;81.60
13115;DHT22;6623;52.120;8.660;2022-12-07T15:16:25;5.90;81.50
13115;DHT22;6623;52.120;8.660;2022-12-07T15:18:51;6.00;81.50
13115;DHT22;6623;52.120;8.660;2022-12-07T15:21:17;5.90;81.50
13115;DHT22;6623;52.120;8.660;2022-12-07T15:23:43;5.90;81.60
13115;DHT22;6623;52.120;8.660;2022-12-07T15:26:10;5.90;81.70
13115;DHT22;6623;52.120;8.660;2022-12-07T15:28:36;5.90;81.80
13115;DHT22;6623;52.120;8.660;2022-12-07T15:31:01;5.90;81.80
13115;DHT22;6623;52.120;8.660;2022-12-07T15:33:27;5.90;81.80
13115;DHT22;6623;52.120;8.660;2022-12-07T15:35:52;5.90;81.90
13115;DHT22;6623;52.120;8.660;2022-12-07T15:38:18;5.90;82.00
13115;DHT22;6623;52.120;8.660;2022-12-07T15:40:46;5.90;82.00
13115;DHT22;6623;52.120;8.660;2022-12-07T15:43:12;5.90;82.00
13115;DHT22;6623;52.120;8.660;2022-12-07T15:45:56;5.90;82.00
13115;DHT22;6623;52.120;8.660;2022-12-07T15:48:21;5.90;82.10
13115;DHT22;6623;52.120;8.660;2022-12-07T15:50:47;5.90;82.20
13115;DHT22;6623;52.120;8.660;2022-12-07T15:53:15;5.90;82.30
13115;DHT22;6623;52.120;8.660;2022-12-07T15:55:41;5.90;82.10
13115;DHT22;6623;52.120;8.660;2022-12-07T15:58:07;5.90;82.20
13115;DHT22;6623;52.120;8.660;2022-12-07T16:00:33;5.80;82.20
13115;DHT22;6623;52.120;8.660;2022-12-07T16:02:59;5.80;82.30
13115;DHT22;6623;52.120;8.660;2022-12-07T16:05:24;5.80;82.40
13115;DHT22;6623;52.120;8.660;2022-12-07T16:07:50;5.70;82.40
13115;DHT22;6623;52.120;8.660;2022-12-07T16:10:15;5.70;82.40
13115;DHT22;6623;52.120;8.660;2022-12-07T16:12:47;5.60;82.20
13115;DHT22;6623;52.120;8.660;2022-12-07T16:15:13;5.50;82.30
13115;DHT22;6623;52.120;8.660;2022-12-07T16:17:39;5.50;82.20
13115;DHT22;6623;52.120;8.660;2022-12-07T16:20:05;5.50;82.00
13115;DHT22;6623;52.120;8.660;2022-12-07T16:22:34;5.40;81.80
13115;DHT22;6623;52.120;8.660;2022-12-07T16:24:59;5.40;81.80
13115;DHT22;6623;52.120;8.660;2022-12-07T16:27:25;5.30;81.80
13115;DHT22;6623;52.120;8.660;2022-12-07T16:29:50;5.30;81.60
13115;DHT22;6623;52.120;8.660;2022-12-07T16:32:16;6.50;82.40
13115;DHT22;6623;52.120;8.660;2022-12-07T16:34:41;5.20;81.60
13115;DHT22;6623;52.120;8.660;2022-12-07T16:37:08;5.30;81.80
13115;DHT22;6623;52.120;8.660;2022-12-07T16:39:34;5.20;81.70
13115;DHT22;6623;52.120;8.660;2022-12-07T16:41:59;5.10;81.60
13115;DHT22;6623;52.120;8.660;2022-12-07T16:44:25;5.10;81.70
13115;DHT22;6623;52.120;8.660;2022-12-07T16:46:51;5.10;81.70
13115;DHT22;6623;52.120;8.660;2022-12-07T16:49:17;5.10;81.70
13115;DHT22;6623;52.120;8.660;2022-12-07T16:51:43;5.10;81.70
13115;DHT22;6623;52.120;8.660;2022-12-07T16:54:11;5.10;81.70
13115;DHT22;6623;52.120;8.660;2022-12-07T16:56:37;5.10;81.80
13115;DHT22;6623;52.120;8.660;2022-12-07T16:59:03;5.10;81.80
13115;DHT22;6623;52.120;8.660;2022-12-07T17:01:28;5.10;81.80
13115;DHT22;6623;52.120;8.660;2022-12-07T17:03:56;5.10;81.90
13115;DHT22;6623;52.120;8.660;2022-12-07T17:06:24;5.10;81.90
13115;DHT22;6623;52.120;8.660;2022-12-07T17:08:51;5.10;82.00
13115;DHT22;6623;52.120;8.660;2022-12-07T17:11:26;5.10;82.00
13115;DHT22;6623;52.120;8.660;2022-12-07T17:13:52;5.10;82.10
13115;DHT22;6623;52.120;8.660;2022-12-07T17:16:36;5.10;82.10
13115;DHT22;6623;52.120;8.660;2022-12-07T17:19:07;5.10;82.20
13115;DHT22;6623;52.120;8.660;2022-12-07T17:21:33;5.20;82.20
13115;DHT22;6623;52.120;8.660;2022-12-07T17:23:59;5.20;82.30
13115;DHT22;6623;52.120;8.660;2022-12-07T17:26:26;5.20;82.40
13115;DHT22;6623;52.120;8.660;2022-12-07T17:28:52;5.20;82.40
13115;DHT22;6623;52.120;8.660;2022-12-07T17:31:19;5.20;82.40
13115;DHT22;6623;52.120;8.660;2022-12-07T17:33:46;5.20;82.30
13115;DHT22;6623;52.120;8.660;2022-12-07T17:36:15;5.20;82.30
13115;DHT22;6623;52.120;8.660;2022-12-07T17:38:41;5.20;82.30
13115;DHT22;6623;52.120;8.660;2022-12-07T17:41:23;5.20;82.30
13115;DHT22;6623;52.120;8.660;2022-12-07T17:44:12;5.20;82.40
13115;DHT22;6623;52.120;8.660;2022-12-07T17:46:39;5.20;82.50
13115;DHT22;6623;52.120;8.660;2022-12-07T17:49:05;5.20;82.40
13115;DHT22;6623;52.120;8.660;2022-12-07T17:51:31;5.20;82.40
13115;DHT22;6623;52.120;8.660;2022-12-07T17:54:16;5.10;82.40
13115;DHT22;6623;52.120;8.660;2022-12-07T17:56:41;5.10;82.50
13115;DHT22;6623;52.120;8.660;2022-12-07T17:59:07;5.10;82.60
13115;DHT22;6623;52.120;8.660;2022-12-07T18:01:33;5.80;83.20
13115;DHT22;6623;52.120;8.660;2022-12-07T18:03:59;5.10;83.00
13115;DHT22;6623;52.120;8.660;2022-12-07T18:06:32;6.00;83.70
13115;DHT22;6623;52.120;8.660;2022-12-07T18:08:58;5.10;83.30
13115;DHT22;6623;52.120;8.660;2022-12-07T18:11:23;5.00;83.30
13115;DHT22;6623;52.120;8.660;2022-12-07T18:13:49;5.00;83.30
13115;DHT22;6623;52.120;8.660;2022-12-07T18:16:16;5.10;83.50
13115;DHT22;6623;52.120;8.660;2022-12-07T18:18:42;5.00;83.50
13115;DHT22;6623;52.120;8.660;2022-12-07T18:21:16;5.60;83.90
13115;DHT22;6623;52.120;8.660;2022-12-07T18:23:43;5.10;83.70
13115;DHT22;6623;52.120;8.660;2022-12-07T18:26:10;5.00;83.60